Time,TemperatureF,DewpointF,PressureIn,WindDirection,WindDirectionDegrees,WindSpeedMPH,WindSpeedGustMPH,Humidity,HourlyPrecipIn,Conditions,Clouds,dailyrainin,SoftwareType,DateUTC
2013-10-29 01:13:00,-999.0,-99.9,29.87,North,-999,-999.0,-999.0,-999,0.00,,,0.00,weatherlink.com 1.10,2013-10-29 08:13:00,
2013-10-29 01:28:00,46.3,29.0,29.87,ENE,57,2.0,7.0,51,0.00,,,0.00,weatherlink.com 1.10,2013-10-29 08:28:00,
2013-10-29 01:43:00,46.6,29.0,29.87,NNE,32,2.0,8.0,50,0.00,,,0.00,weatherlink.com 1.10,2013-10-29 08:43:00,
2013-10-29 01:58:00,46.8,28.0,29.87,North,5,3.0,6.0,49,0.00,,,0.00,weatherlink.com 1.10,2013-10-29 08:58:00,
2013-10-29 02:13:00,46.5,29.0,29.86,NNE,31,1.0,7.0,50,0.00,,,0.00,weatherlink.com 1.10,2013-10-29 09:13:00,
2013-10-29 02:28:00,45.9,32.0,29.87,ESE,114,3.0,3.0,58,0.00,,,0.00,weatherlink.com 1.10,2013-10-29 09:28:00,
2013-10-29 02:43:00,45.0,30.0,29.86,ESE,111,1.0,3.0,56,0.00,,,0.00,weatherlink.com 1.10,2013-10-29 09:43:00,
2013-10-29 02:58:00,44.0,30.0,29.86,ENE,76,0.0,3.0,58,0.00,,,0.00,weatherlink.com 1.10,2013-10-29 09:58:00,
2013-10-29 03:13:00,42.6,30.0,29.87,ESE,102,0.0,3.0,61,0.00,,,0.00,weatherlink.com 1.10,2013-10-29 10:13:00,
2013-10-29 03:28:00,42.9,31.0,29.87,ESE,123,0.0,2.0,63,0.00,,,0.00,weatherlink.com 1.10,2013-10-29 10:28:00,
2013-10-29 03:43:00,41.0,30.0,29.86,NNE,15,0.0,3.0,66,0.00,,,0.00,weatherlink.com 1.10,2013-10-29 10:43:00,
2013-10-29 03:58:00,41.9,32.0,29.87,NE,48,0.0,1.0,69,0.00,,,0.00,weatherlink.com 1.10,2013-10-29 10:58:00,
2013-10-29 04:13:00,41.8,34.0,29.87,East,82,2.0,3.0,74,0.00,,,0.00,weatherlink.com 1.10,2013-10-29 11:13:00,
2013-10-29 04:29:00,41.3,34.0,29.87,ESE,109,2.0,3.0,76,0.00,,,0.00,weatherlink.com 1.10,2013-10-29 11:29:00,
2013-10-29 04:44:00,40.4,33.0,29.88,NNE,17,3.0,4.0,75,0.01,,,0.01,weatherlink.com 1.10,2013-10-29 11:44:00,
2013-10-29 04:59:00,38.4,33.0,29.88,NNE,26,0.0,3.0,80,0.01,,,0.01,weatherlink.com 1.10,2013-10-29 11:59:00,
2013-10-29 05:14:00,38.9,33.0,29.88,NNE,17,0.0,4.0,80,0.01,,,0.01,weatherlink.com 1.10,2013-10-29 12:14:00,
2013-10-29 05:29:00,39.7,34.0,29.88,NNE,32,1.0,3.0,79,0.01,,,0.01,weatherlink.com 1.10,2013-10-29 12:29:00,
2013-10-29 05:44:00,38.4,33.0,29.89,NNE,21,1.0,3.0,82,0.00,,,0.01,weatherlink.com 1.10,2013-10-29 12:44:00,
2013-10-29 05:59:00,37.3,33.0,29.89,NNE,26,0.0,2.0,85,0.00,,,0.01,weatherlink.com 1.10,2013-10-29 12:59:00,
2013-10-29 06:14:00,35.6,32.0,29.89,North,360,4.0,5.0,86,0.00,,,0.01,weatherlink.com 1.10,2013-10-29 13:14:00,
2013-10-29 06:29:00,35.6,32.0,29.89,NNE,17,2.0,4.0,88,0.00,,,0.01,weatherlink.com 1.10,2013-10-29 13:29:00,
2013-10-29 06:44:00,35.4,33.0,29.89,North,360,3.0,5.0,89,0.00,,,0.01,weatherlink.com 1.10,2013-10-29 13:44:00,
2013-10-29 06:59:00,35.5,33.0,29.89,NE,34,3.0,4.0,89,0.00,,,0.01,weatherlink.com 1.10,2013-10-29 13:59:00,
2013-10-29 07:14:00,34.7,32.0,29.89,NNE,29,3.0,4.0,89,0.00,,,0.01,weatherlink.com 1.10,2013-10-29 14:14:00,
2013-10-29 07:29:00,34.5,32.0,29.89,NNE,32,3.0,4.0,89,0.00,,,0.01,weatherlink.com 1.10,2013-10-29 14:29:00,
2013-10-29 07:44:00,34.2,31.0,29.90,NNE,22,2.0,4.0,89,0.00,,,0.01,weatherlink.com 1.10,2013-10-29 14:44:00,
2013-10-29 07:59:00,35.9,33.0,29.91,NE,47,0.0,2.0,89,0.00,,,0.01,weatherlink.com 1.10,2013-10-29 14:59:00,
2013-10-29 08:14:00,35.0,32.0,29.91,NE,36,2.0,5.0,88,0.00,,,0.01,weatherlink.com 1.10,2013-10-29 15:14:00,
2013-10-29 08:29:00,35.8,32.0,29.91,NNE,17,2.0,4.0,87,0.00,,,0.01,weatherlink.com 1.10,2013-10-29 15:29:00,
2013-10-29 08:44:00,37.1,34.0,29.92,NNE,17,0.0,3.0,87,0.00,,,0.01,weatherlink.com 1.10,2013-10-29 15:44:00,
2013-10-29 08:59:00,39.8,35.0,29.92,NNE,17,0.0,3.0,84,0.00,,,0.01,weatherlink.com 1.10,2013-10-29 15:59:00,
2013-10-29 09:14:00,42.9,37.0,29.92,NNE,17,1.0,2.0,79,0.00,,,0.01,weatherlink.com 1.10,2013-10-29 16:14:00,
2013-10-29 09:29:00,46.8,39.0,29.92,NNE,17,0.0,0.0,74,0.00,,,0.01,weatherlink.com 1.10,2013-10-29 16:29:00,
2013-10-29 09:44:00,50.1,39.0,29.93,NNE,17,0.0,0.0,67,0.00,,,0.01,weatherlink.com 1.10,2013-10-29 16:44:00,
2013-10-29 09:59:00,47.8,38.0,29.93,SSW,199,4.0,6.0,69,0.00,,,0.01,weatherlink.com 1.10,2013-10-29 16:59:00,
2013-10-29 10:14:00,44.9,38.0,29.93,SSW,199,1.0,2.0,78,0.00,,,0.01,weatherlink.com 1.10,2013-10-29 17:14:00,
2013-10-29 10:29:00,45.4,39.0,29.94,SSW,199,1.0,3.0,78,0.00,,,0.01,weatherlink.com 1.10,2013-10-29 17:29:00,
2013-10-29 10:44:00,45.9,39.0,29.94,SSW,199,1.0,4.0,78,0.00,,,0.01,weatherlink.com 1.10,2013-10-29 17:44:00,
2013-10-29 10:59:00,45.2,40.0,29.94,SSW,193,3.0,5.0,81,0.00,,,0.01,weatherlink.com 1.10,2013-10-29 17:59:00,
2013-10-29 11:14:00,45.5,39.0,29.93,South,177,3.0,5.0,79,0.00,,,0.01,weatherlink.com 1.10,2013-10-29 18:14:00,
2013-10-29 11:29:00,46.9,39.0,29.93,SW,215,3.0,3.0,75,0.00,,,0.01,weatherlink.com 1.10,2013-10-29 18:29:00,
2013-10-29 11:44:00,47.0,39.0,29.94,WSW,250,2.0,6.0,74,0.00,,,0.01,weatherlink.com 1.10,2013-10-29 18:44:00,
2013-10-29 11:59:00,46.4,39.0,29.94,SW,233,0.0,5.0,76,0.00,,,0.01,weatherlink.com 1.10,2013-10-29 18:59:00,
2013-10-29 12:14:00,47.2,40.0,29.94,SSW,213,2.0,5.0,75,0.00,,,0.01,weatherlink.com 1.10,2013-10-29 19:14:00,
2013-10-29 12:29:00,48.1,39.0,29.93,SSW,194,2.0,4.0,71,0.00,,,0.01,weatherlink.com 1.10,2013-10-29 19:29:00,
2013-10-29 12:44:00,49.1,40.0,29.93,South,180,7.0,8.0,71,0.00,,,0.01,weatherlink.com 1.10,2013-10-29 19:44:00,
2013-10-29 12:59:00,49.7,40.0,29.93,South,181,6.0,7.0,70,0.00,,,0.01,weatherlink.com 1.10,2013-10-29 19:59:00,
2013-10-29 13:14:00,50.1,40.0,29.92,South,173,4.0,6.0,69,0.00,,,0.01,weatherlink.com 1.10,2013-10-29 20:14:00,
2013-10-29 13:29:00,51.1,40.0,29.92,South,184,4.0,6.0,67,0.00,,,0.01,weatherlink.com 1.10,2013-10-29 20:29:00,
2013-10-29 13:45:00,50.8,41.0,29.91,South,186,3.0,5.0,68,0.00,,,0.01,weatherlink.com 1.10,2013-10-29 20:45:00,
2013-10-29 14:00:00,50.7,40.0,29.91,SSE,165,2.0,4.0,68,0.00,,,0.01,weatherlink.com 1.10,2013-10-29 21:00:00,
2013-10-29 14:15:00,51.3,42.0,29.91,South,180,2.0,4.0,70,0.00,,,0.00,weatherlink.com 1.10,2013-10-29 21:15:00,
2013-10-29 14:30:00,51.5,43.0,29.91,South,172,5.0,9.0,72,0.00,,,0.00,weatherlink.com 1.10,2013-10-29 21:30:00,
2013-10-29 14:45:00,52.0,42.0,29.91,South,171,4.0,7.0,69,0.00,,,0.00,weatherlink.com 1.10,2013-10-29 21:45:00,
2013-10-29 15:00:00,52.5,43.0,29.90,South,187,8.0,10.0,70,0.00,,,0.00,weatherlink.com 1.10,2013-10-29 22:00:00,
2013-10-29 15:15:00,51.7,43.0,29.90,South,175,8.0,10.0,71,0.00,,,0.00,weatherlink.com 1.10,2013-10-29 22:15:00,
2013-10-29 15:30:00,50.8,42.0,29.90,SSW,205,11.0,13.0,71,0.00,,,0.00,weatherlink.com 1.10,2013-10-29 22:30:00,
2013-10-29 15:45:00,51.3,42.0,29.90,SSW,195,8.0,10.0,71,0.00,,,0.00,weatherlink.com 1.10,2013-10-29 22:45:00,
2013-10-29 16:00:00,51.3,42.0,29.89,SSW,199,5.0,8.0,71,0.00,,,0.00,weatherlink.com 1.10,2013-10-29 23:00:00,
2013-10-29 16:15:00,51.4,43.0,29.89,South,182,6.0,8.0,74,0.00,,,0.00,weatherlink.com 1.10,2013-10-29 23:15:00,
2013-10-29 16:30:00,50.8,42.0,29.89,SSW,203,6.0,7.0,73,0.00,,,0.00,weatherlink.com 1.10,2013-10-29 23:30:00,
2013-10-29 16:45:00,51.0,43.0,29.89,SSW,192,6.0,7.0,74,0.00,,,0.00,weatherlink.com 1.10,2013-10-29 23:45:00,
2013-10-29 17:00:00,51.3,44.0,29.89,SSW,197,4.0,5.0,75,0.00,,,0.00,weatherlink.com 1.10,2013-10-30 00:00:00,
2013-10-29 17:15:00,50.9,43.0,29.89,SSW,200,3.0,5.0,75,0.00,,,0.00,weatherlink.com 1.10,2013-10-30 00:15:00,
2013-10-29 17:45:00,50.1,41.0,29.89,SW,235,3.0,4.0,72,0.00,,,0.00,weatherlink.com 1.10,2013-10-30 00:45:00,
2013-10-29 18:00:00,49.6,42.0,29.89,WSW,247,1.0,4.0,74,0.00,,,0.00,weatherlink.com 1.10,2013-10-30 01:00:00,
2013-10-29 18:15:00,49.0,41.0,29.89,WSW,239,1.0,3.0,74,0.00,,,0.00,weatherlink.com 1.10,2013-10-30 01:15:00,
2013-10-29 18:30:00,48.7,41.0,29.90,WSW,239,0.0,1.0,75,0.00,,,0.00,weatherlink.com 1.10,2013-10-30 01:30:00,
2013-10-29 18:45:00,48.2,42.0,29.90,South,173,1.0,3.0,79,0.00,,,0.00,weatherlink.com 1.10,2013-10-30 01:45:00,
2013-10-29 19:00:00,47.9,42.0,29.90,South,172,0.0,2.0,81,0.00,,,0.00,weatherlink.com 1.10,2013-10-30 02:00:00,
2013-10-29 19:15:00,46.1,41.0,29.91,SSE,161,0.0,0.0,81,0.00,,,0.00,weatherlink.com 1.10,2013-10-30 02:15:00,
2013-10-29 19:30:00,43.7,39.0,29.91,SSE,161,0.0,0.0,84,0.00,,,0.00,weatherlink.com 1.10,2013-10-30 02:30:00,
2013-10-29 19:45:00,43.0,39.0,29.91,SSE,153,1.0,3.0,86,0.00,,,0.00,weatherlink.com 1.10,2013-10-30 02:45:00,
2013-10-29 20:00:00,43.1,39.0,29.91,East,90,0.0,0.0,84,0.00,,,0.00,weatherlink.com 1.10,2013-10-30 03:00:00,
2013-10-29 20:15:00,42.0,38.0,29.91,NE,36,1.0,3.0,85,0.00,,,0.00,weatherlink.com 1.10,2013-10-30 03:15:00,
2013-10-29 20:30:00,41.3,37.0,29.91,NE,52,1.0,3.0,86,0.00,,,0.00,weatherlink.com 1.10,2013-10-30 03:30:00,
2013-10-29 20:45:00,40.6,37.0,29.92,NE,51,2.0,3.0,87,0.00,,,0.00,weatherlink.com 1.10,2013-10-30 03:45:00,
2013-10-29 21:00:00,40.1,37.0,29.92,North,11,3.0,4.0,88,0.00,,,0.00,weatherlink.com 1.10,2013-10-30 04:00:00,
2013-10-29 21:16:00,39.8,37.0,29.92,NNE,16,2.0,3.0,88,0.00,,,0.00,weatherlink.com 1.10,2013-10-30 04:16:00,
2013-10-29 21:31:00,39.7,37.0,29.92,NE,51,3.0,3.0,89,0.00,,,0.00,weatherlink.com 1.10,2013-10-30 04:31:00,
2013-10-29 21:46:00,39.6,37.0,29.92,NE,42,2.0,4.0,89,0.00,,,0.00,weatherlink.com 1.10,2013-10-30 04:46:00,
2013-10-29 22:01:00,39.6,36.0,29.92,ENE,71,1.0,4.0,88,0.00,,,0.00,weatherlink.com 1.10,2013-10-30 05:01:00,
2013-10-29 22:16:00,39.7,37.0,29.93,ENE,71,0.0,2.0,88,0.00,,,0.00,weatherlink.com 1.10,2013-10-30 05:16:00,
2013-10-29 22:31:00,40.5,37.0,29.93,ENE,71,1.0,2.0,86,0.00,,,0.00,weatherlink.com 1.10,2013-10-30 05:31:00,
2013-10-29 22:46:00,40.0,36.0,29.93,ENE,63,1.0,3.0,85,0.00,,,0.00,weatherlink.com 1.10,2013-10-30 05:46:00,
2013-10-29 23:01:00,40.2,36.0,29.93,ENE,63,0.0,3.0,85,0.00,,,0.00,weatherlink.com 1.10,2013-10-30 06:01:00,
2013-10-29 23:16:00,39.7,36.0,29.93,ENE,62,1.0,3.0,85,0.00,,,0.00,weatherlink.com 1.10,2013-10-30 06:16:00,
2013-10-29 23:31:00,40.6,37.0,29.93,ENE,62,3.0,3.0,85,0.00,,,0.00,weatherlink.com 1.10,2013-10-30 06:31:00,
2013-10-29 23:46:00,38.9,35.0,29.93,NNE,26,3.0,4.0,86,0.00,,,0.00,weatherlink.com 1.10,2013-10-30 06:46:00,